sensor_id;sensor_type;location;lat;lon;timestamp;pressure;altitude;pressure_sealevel;temperature;humidity
73151;BME280;61354;50.758;6.106;2023-05-14T00:00:17;99451.59;;;11.60;90.50
73151;BME280;61354;50.758;6.106;2023-05-14T00:02:43;99445.16;;;11.72;89.14
73151;BME280;61354;50.758;6.106;2023-05-14T00:05:09;99442.28;;;11.68;90.05
73151;BME280;61354;50.758;6.106;2023-05-14T00:07:34;99446.09;;;11.48;89.29
73151;BME280;61354;50.758;6.106;2023-05-14T00:10:00;99433.22;;;11.56;90.01
73151;BME280;61354;50.758;6.106;2023-05-14T00:12:26;99435.47;;;11.50;90.42
73151;BME280;61354;50.758;6.106;2023-05-14T00:14:52;99425.03;;;11.47;91.44
73151;BME280;61354;50.758;6.106;2023-05-14T00:17:18;99427.84;;;11.19;91.83
73151;BME280;61354;50.758;6.106;2023-05-14T00:19:43;99424.72;;;11.20;92.12
73151;BME280;61354;50.758;6.106;2023-05-14T00:22:09;99429.75;;;11.31;91.52
73151;BME280;61354;50.758;6.106;2023-05-14T00:24:35;99430.13;;;11.29;90.96
73151;BME280;61354;50.758;6.106;2023-05-14T00:27:01;99430.63;;;11.19;91.85
73151;BME280;61354;50.758;6.106;2023-05-14T00:29:27;99427.69;;;11.28;92.19
73151;BME280;61354;50.758;6.106;2023-05-14T00:31:52;99423.31;;;11.42;91.04
73151;BME280;61354;50.758;6.106;2023-05-14T00:34:18;99420.72;;;11.34;92.11
73151;BME280;61354;50.758;6.106;2023-05-14T00:36:43;99415.97;;;11.06;92.71
73151;BME280;61354;50.758;6.106;2023-05-14T00:39:09;99412.44;;;11.22;91.78
73151;BME280;61354;50.758;6.106;2023-05-14T00:41:34;99418.31;;;11.32;91.82
73151;BME280;61354;50.758;6.106;2023-05-14T00:44:00;99402.94;;;11.23;92.32
73151;BME280;61354;50.758;6.106;2023-05-14T00:46:26;99402.94;;;11.23;93.34
73151;BME280;61354;50.758;6.106;2023-05-14T00:48:52;99408.59;;;11.26;93.59
73151;BME280;61354;50.758;6.106;2023-05-14T00:51:18;99413.25;;;11.22;93.53
73151;BME280;61354;50.758;6.106;2023-05-14T00:53:45;99417.03;;;11.30;93.26
73151;BME280;61354;50.758;6.106;2023-05-14T00:56:11;99409.94;;;11.16;93.74
73151;BME280;61354;50.758;6.106;2023-05-14T00:58:38;99410.25;;;10.99;94.49
73151;BME280;61354;50.758;6.106;2023-05-14T01:01:03;99411.31;;;10.82;95.13
73151;BME280;61354;50.758;6.106;2023-05-14T01:03:30;99416.06;;;10.82;94.89
73151;BME280;61354;50.758;6.106;2023-05-14T01:08:55;99408.69;;;10.74;94.86
73151;BME280;61354;50.758;6.106;2023-05-14T01:11:28;99411.59;;;10.77;95.26
73151;BME280;61354;50.758;6.106;2023-05-14T01:14:15;99409.34;;;11.11;94.45
73151;BME280;61354;50.758;6.106;2023-05-14T01:16:47;99404.53;;;10.80;94.84
73151;BME280;61354;50.758;6.106;2023-05-14T01:19:38;99405.34;;;10.80;94.70
73151;BME280;61354;50.758;6.106;2023-05-14T01:22:05;99403.88;;;10.70;94.80
73151;BME280;61354;50.758;6.106;2023-05-14T01:24:31;99403.16;;;10.74;94.87
73151;BME280;61354;50.758;6.106;2023-05-14T01:27:18;99394.03;;;10.61;95.81
73151;BME280;61354;50.758;6.106;2023-05-14T01:29:58;99399.25;;;10.62;96.25
73151;BME280;61354;50.758;6.106;2023-05-14T01:32:27;99398.97;;;10.80;96.14
73151;BME280;61354;50.758;6.106;2023-05-14T01:34:55;99396.84;;;10.89;94.76
73151;BME280;61354;50.758;6.106;2023-05-14T01:37:23;99393.63;;;10.87;95.33
73151;BME280;61354;50.758;6.106;2023-05-14T01:39:50;99391.84;;;10.94;95.43
73151;BME280;61354;50.758;6.106;2023-05-14T01:42:16;99391.22;;;10.73;95.13
73151;BME280;61354;50.758;6.106;2023-05-14T01:44:42;99392.94;;;10.78;95.36
73151;BME280;61354;50.758;6.106;2023-05-14T01:47:08;99387.53;;;10.69;95.92
73151;BME280;61354;50.758;6.106;2023-05-14T01:49:33;99382.47;;;10.71;95.57
73151;BME280;61354;50.758;6.106;2023-05-14T01:52:01;99391.75;;;10.63;96.22
73151;BME280;61354;50.758;6.106;2023-05-14T01:54:27;99392.22;;;10.53;96.31
73151;BME280;61354;50.758;6.106;2023-05-14T01:56:53;99384.00;;;10.56;96.09
73151;BME280;61354;50.758;6.106;2023-05-14T01:59:18;99371.94;;;10.64;95.95
73151;BME280;61354;50.758;6.106;2023-05-14T02:01:44;99377.78;;;10.47;95.92
73151;BME280;61354;50.758;6.106;2023-05-14T02:04:09;99380.06;;;10.57;95.01
73151;BME280;61354;50.758;6.106;2023-05-14T02:06:35;99376.06;;;10.42;96.05
73151;BME280;61354;50.758;6.106;2023-05-14T02:09:01;99376.34;;;10.53;96.10
73151;BME280;61354;50.758;6.106;2023-05-14T02:11:27;99381.91;;;10.53;96.02
73151;BME280;61354;50.758;6.106;2023-05-14T02:13:52;99387.75;;;10.11;96.55
73151;BME280;61354;50.758;6.106;2023-05-14T02:16:18;99388.91;;;9.49;98.92
73151;BME280;61354;50.758;6.106;2023-05-14T02:18:43;99388.13;;;9.73;99.44
73151;BME280;61354;50.758;6.106;2023-05-14T02:21:09;99379.00;;;9.97;98.19
73151;BME280;61354;50.758;6.106;2023-05-14T02:23:35;99373.91;;;9.99;97.49
73151;BME280;61354;50.758;6.106;2023-05-14T02:26:00;99364.91;;;9.90;97.61
73151;BME280;61354;50.758;6.106;2023-05-14T02:28:26;99367.22;;;9.88;97.90
73151;BME280;61354;50.758;6.106;2023-05-14T02:30:57;99359.56;;;9.97;98.09
73151;BME280;61354;50.758;6.106;2023-05-14T02:33:23;99357.97;;;9.96;96.65
73151;BME280;61354;50.758;6.106;2023-05-14T02:35:48;99364.22;;;9.68;98.45
73151;BME280;61354;50.758;6.106;2023-05-14T02:38:14;99350.47;;;9.72;99.42
73151;BME280;61354;50.758;6.106;2023-05-14T02:40:39;99353.13;;;9.68;98.53
73151;BME280;61354;50.758;6.106;2023-05-14T02:43:05;99362.59;;;9.67;99.68
73151;BME280;61354;50.758;6.106;2023-05-14T02:45:31;99356.56;;;10.02;98.58
73151;BME280;61354;50.758;6.106;2023-05-14T02:47:56;99360.03;;;9.87;98.24
73151;BME280;61354;50.758;6.106;2023-05-14T02:50:22;99358.88;;;10.00;97.69
73151;BME280;61354;50.758;6.106;2023-05-14T02:52:47;99359.47;;;9.93;98.20
73151;BME280;61354;50.758;6.106;2023-05-14T02:55:13;99359.94;;;9.95;98.41
73151;BME280;61354;50.758;6.106;2023-05-14T02:57:38;99360.25;;;9.94;98.68
73151;BME280;61354;50.758;6.106;2023-05-14T03:00:04;99355.63;;;9.98;97.86
73151;BME280;61354;50.758;6.106;2023-05-14T03:02:30;99361.41;;;10.05;97.28
73151;BME280;61354;50.758;6.106;2023-05-14T03:04:56;99362.13;;;9.90;97.60
73151;BME280;61354;50.758;6.106;2023-05-14T03:07:21;99373.94;;;9.75;97.98
73151;BME280;61354;50.758;6.106;2023-05-14T03:09:47;99370.22;;;9.58;99.04
73151;BME280;61354;50.758;6.106;2023-05-14T03:12:13;99369.75;;;9.68;99.64
73151;BME280;61354;50.758;6.106;2023-05-14T03:14:38;99365.81;;;9.69;96.95
73151;BME280;61354;50.758;6.106;2023-05-14T03:17:04;99366.53;;;9.54;98.11
73151;BME280;61354;50.758;6.106;2023-05-14T03:19:29;99366.19;;;9.80;98.28
73151;BME280;61354;50.758;6.106;2023-05-14T03:21:55;99364.44;;;9.76;97.92
73151;BME280;61354;50.758;6.106;2023-05-14T03:24:21;99362.94;;;9.78;98.32
73151;BME280;61354;50.758;6.106;2023-05-14T03:26:46;99364.56;;;9.67;97.94
73151;BME280;61354;50.758;6.106;2023-05-14T03:29:12;99365.94;;;9.73;98.23
73151;BME280;61354;50.758;6.106;2023-05-14T03:31:37;99357.38;;;9.78;98.03
73151;BME280;61354;50.758;6.106;2023-05-14T03:34:03;99363.97;;;9.86;97.83
73151;BME280;61354;50.758;6.106;2023-05-14T03:36:29;99348.84;;;9.95;97.05
73151;BME280;61354;50.758;6.106;2023-05-14T03:38:54;99355.88;;;9.93;97.87
73151;BME280;61354;50.758;6.106;2023-05-14T03:41:20;99353.69;;;9.86;97.12
73151;BME280;61354;50.758;6.106;2023-05-14T03:43:47;99349.41;;;9.77;98.22
73151;BME280;61354;50.758;6.106;2023-05-14T03:46:12;99346.53;;;9.85;97.08
73151;BME280;61354;50.758;6.106;2023-05-14T03:48:38;99350.69;;;9.91;98.25
73151;BME280;61354;50.758;6.106;2023-05-14T03:51:03;99342.13;;;9.84;97.84
73151;BME280;61354;50.758;6.106;2023-05-14T03:53:29;99347.31;;;9.98;97.99
73151;BME280;61354;50.758;6.106;2023-05-14T03:55:55;99344.09;;;9.96;97.96
73151;BME280;61354;50.758;6.106;2023-05-14T03:58:21;99348.63;;;9.76;99.01
73151;BME280;61354;50.758;6.106;2023-05-14T04:00:46;99348.72;;;9.80;99.17
73151;BME280;61354;50.758;6.106;2023-05-14T04:03:12;99348.50;;;9.85;99.26
73151;BME280;61354;50.758;6.106;2023-05-14T04:05:37;99344.09;;;9.84;98.21
73151;BME280;61354;50.758;6.106;2023-05-14T04:08:03;99346.50;;;9.98;98.33
73151;BME280;61354;50.758;6.106;2023-05-14T04:10:30;99346.88;;;9.96;98.13
73151;BME280;61354;50.758;6.106;2023-05-14T04:12:56;99341.09;;;10.01;97.62
73151;BME280;61354;50.758;6.106;2023-05-14T04:15:22;99337.75;;;9.83;97.77
73151;BME280;61354;50.758;6.106;2023-05-14T04:17:47;99335.44;;;9.85;98.31
73151;BME280;61354;50.758;6.106;2023-05-14T04:20:13;99342.59;;;9.86;99.18
73151;BME280;61354;50.758;6.106;2023-05-14T04:22:38;99347.09;;;9.91;99.30
73151;BME280;61354;50.758;6.106;2023-05-14T04:25:04;99350.34;;;9.81;99.59
73151;BME280;61354;50.758;6.106;2023-05-14T04:27:31;99342.47;;;9.83;100.00
73151;BME280;61354;50.758;6.106;2023-05-14T04:29:57;99339.50;;;9.76;99.71
73151;BME280;61354;50.758;6.106;2023-05-14T04:32:23;99340.53;;;9.71;100.00
73151;BME280;61354;50.758;6.106;2023-05-14T04:34:48;99327.91;;;9.74;98.97
73151;BME280;61354;50.758;6.106;2023-05-14T04:37:14;99331.63;;;9.78;99.87
73151;BME280;61354;50.758;6.106;2023-05-14T04:39:40;99335.06;;;9.87;99.17
73151;BME280;61354;50.758;6.106;2023-05-14T04:42:05;99339.00;;;9.98;99.18
73151;BME280;61354;50.758;6.106;2023-05-14T04:44:33;99332.06;;;10.04;98.47
73151;BME280;61354;50.758;6.106;2023-05-14T04:46:59;99330.44;;;9.91;98.11
73151;BME280;61354;50.758;6.106;2023-05-14T04:49:25;99343.28;;;10.08;98.00
73151;BME280;61354;50.758;6.106;2023-05-14T04:51:50;99334.97;;;9.95;98.86
73151;BME280;61354;50.758;6.106;2023-05-14T04:54:16;99337.63;;;10.04;98.25
73151;BME280;61354;50.758;6.106;2023-05-14T04:56:42;99340.28;;;10.01;98.83
73151;BME280;61354;50.758;6.106;2023-05-14T04:59:07;99338.06;;;9.94;99.40
73151;BME280;61354;50.758;6.106;2023-05-14T05:01:33;99339.47;;;10.00;99.15
73151;BME280;61354;50.758;6.106;2023-05-14T05:03:59;99343.16;;;10.04;99.16
73151;BME280;61354;50.758;6.106;2023-05-14T05:06:24;99332.88;;;10.05;99.27
73151;BME280;61354;50.758;6.106;2023-05-14T05:08:50;99345.44;;;10.14;98.79
73151;BME280;61354;50.758;6.106;2023-05-14T05:11:15;99350.06;;;10.23;99.18
73151;BME280;61354;50.758;6.106;2023-05-14T05:13:41;99340.56;;;10.36;98.38
73151;BME280;61354;50.758;6.106;2023-05-14T05:16:06;99343.44;;;10.39;98.66
73151;BME280;61354;50.758;6.106;2023-05-14T05:18:32;99345.53;;;10.42;98.33
73151;BME280;61354;50.758;6.106;2023-05-14T05:20:57;99346.81;;;10.45;97.98
73151;BME280;61354;50.758;6.106;2023-05-14T05:23:23;99337.41;;;10.50;98.19
73151;BME280;61354;50.758;6.106;2023-05-14T05:25:49;99345.59;;;10.58;98.34
73151;BME280;61354;50.758;6.106;2023-05-14T05:28:15;99337.38;;;10.62;98.25
73151;BME280;61354;50.758;6.106;2023-05-14T05:30:41;99339.53;;;10.68;97.59
73151;BME280;61354;50.758;6.106;2023-05-14T05:33:09;99345.28;;;10.76;97.58
73151;BME280;61354;50.758;6.106;2023-05-14T05:35:35;99343.16;;;10.85;97.62
73151;BME280;61354;50.758;6.106;2023-05-14T05:38:01;99344.06;;;10.89;97.50
73151;BME280;61354;50.758;6.106;2023-05-14T05:40:27;99341.00;;;10.94;96.90
73151;BME280;61354;50.758;6.106;2023-05-14T05:42:52;99342.81;;;11.02;96.75
73151;BME280;61354;50.758;6.106;2023-05-14T05:45:18;99345.59;;;11.02;96.71
73151;BME280;61354;50.758;6.106;2023-05-14T05:47:43;99341.31;;;11.05;96.59
73151;BME280;61354;50.758;6.106;2023-05-14T05:50:10;99349.50;;;11.13;96.83
73151;BME280;61354;50.758;6.106;2023-05-14T05:52:35;99350.38;;;11.17;96.21
73151;BME280;61354;50.758;6.106;2023-05-14T05:55:01;99350.28;;;11.14;95.80
73151;BME280;61354;50.758;6.106;2023-05-14T05:57:27;99349.59;;;11.17;95.24
73151;BME280;61354;50.758;6.106;2023-05-14T05:59:52;99346.44;;;11.18;95.81
73151;BME280;61354;50.758;6.106;2023-05-14T06:02:18;99355.69;;;11.23;94.71
73151;BME280;61354;50.758;6.106;2023-05-14T06:04:44;99359.34;;;11.27;94.75
73151;BME280;61354;50.758;6.106;2023-05-14T06:07:10;99367.53;;;11.35;94.05
73151;BME280;61354;50.758;6.106;2023-05-14T06:09:35;99374.09;;;11.43;93.68
73151;BME280;61354;50.758;6.106;2023-05-14T06:12:01;99369.63;;;11.54;93.64
73151;BME280;61354;50.758;6.106;2023-05-14T06:14:26;99367.44;;;11.63;94.65
73151;BME280;61354;50.758;6.106;2023-05-14T06:16:52;99359.72;;;11.73;94.80
73151;BME280;61354;50.758;6.106;2023-05-14T06:19:18;99363.41;;;11.77;94.36
73151;BME280;61354;50.758;6.106;2023-05-14T06:21:43;99372.28;;;11.82;94.06
73151;BME280;61354;50.758;6.106;2023-05-14T06:24:09;99363.31;;;11.89;93.28
73151;BME280;61354;50.758;6.106;2023-05-14T06:26:35;99368.19;;;11.92;93.30
73151;BME280;61354;50.758;6.106;2023-05-14T06:29:01;99363.59;;;12.00;92.95
73151;BME280;61354;50.758;6.106;2023-05-14T06:31:26;99364.47;;;12.04;93.12
73151;BME280;61354;50.758;6.106;2023-05-14T06:33:52;99355.47;;;12.10;93.37
73151;BME280;61354;50.758;6.106;2023-05-14T06:36:17;99355.94;;;12.12;92.64
73151;BME280;61354;50.758;6.106;2023-05-14T06:38:43;99362.38;;;12.16;93.69
73151;BME280;61354;50.758;6.106;2023-05-14T06:41:08;99369.56;;;12.17;93.40
73151;BME280;61354;50.758;6.106;2023-05-14T06:43:34;99360.19;;;12.26;93.30
73151;BME280;61354;50.758;6.106;2023-05-14T06:46:00;99360.38;;;12.33;91.67
73151;BME280;61354;50.758;6.106;2023-05-14T06:48:25;99353.09;;;12.28;91.72
73151;BME280;61354;50.758;6.106;2023-05-14T06:50:53;99358.00;;;12.35;91.52
73151;BME280;61354;50.758;6.106;2023-05-14T06:53:19;99359.06;;;12.46;91.54
73151;BME280;61354;50.758;6.106;2023-05-14T06:55:46;99358.03;;;12.54;91.90
73151;BME280;61354;50.758;6.106;2023-05-14T06:58:12;99358.53;;;12.60;91.80
73151;BME280;61354;50.758;6.106;2023-05-14T07:00:38;99354.66;;;12.64;91.29
73151;BME280;61354;50.758;6.106;2023-05-14T07:03:04;99359.16;;;12.69;90.40
73151;BME280;61354;50.758;6.106;2023-05-14T07:05:30;99367.63;;;12.76;91.98
73151;BME280;61354;50.758;6.106;2023-05-14T07:07:56;99356.72;;;12.67;90.48
73151;BME280;61354;50.758;6.106;2023-05-14T07:10:22;99359.34;;;12.80;90.38
73151;BME280;61354;50.758;6.106;2023-05-14T07:12:48;99366.75;;;12.72;91.72
73151;BME280;61354;50.758;6.106;2023-05-14T07:15:13;99373.28;;;12.80;91.93
73151;BME280;61354;50.758;6.106;2023-05-14T07:17:39;99370.56;;;12.64;91.69
73151;BME280;61354;50.758;6.106;2023-05-14T07:20:05;99374.91;;;12.81;92.23
73151;BME280;61354;50.758;6.106;2023-05-14T07:22:31;99376.06;;;12.60;92.76
73151;BME280;61354;50.758;6.106;2023-05-14T07:24:57;99376.81;;;12.77;93.57
73151;BME280;61354;50.758;6.106;2023-05-14T07:27:22;99370.66;;;12.87;93.39
73151;BME280;61354;50.758;6.106;2023-05-14T07:29:49;99370.19;;;12.85;93.10
73151;BME280;61354;50.758;6.106;2023-05-14T07:32:15;99369.47;;;12.88;92.85
73151;BME280;61354;50.758;6.106;2023-05-14T07:34:40;99371.06;;;12.89;93.69
73151;BME280;61354;50.758;6.106;2023-05-14T07:37:06;99371.38;;;13.03;93.49
73151;BME280;61354;50.758;6.106;2023-05-14T07:39:32;99368.94;;;13.02;95.47
73151;BME280;61354;50.758;6.106;2023-05-14T07:41:59;99369.78;;;13.02;94.35
73151;BME280;61354;50.758;6.106;2023-05-14T07:44:25;99368.22;;;12.85;94.74
73151;BME280;61354;50.758;6.106;2023-05-14T07:46:50;99368.13;;;13.01;95.04
73151;BME280;61354;50.758;6.106;2023-05-14T07:49:16;99365.50;;;12.89;96.38
73151;BME280;61354;50.758;6.106;2023-05-14T07:51:41;99374.41;;;12.94;97.48
73151;BME280;61354;50.758;6.106;2023-05-14T07:54:07;99369.41;;;12.84;96.51
73151;BME280;61354;50.758;6.106;2023-05-14T07:56:35;99361.72;;;12.78;95.87
73151;BME280;61354;50.758;6.106;2023-05-14T07:59:01;99361.53;;;13.09;96.61
73151;BME280;61354;50.758;6.106;2023-05-14T08:01:27;99369.50;;;13.30;96.19
73151;BME280;61354;50.758;6.106;2023-05-14T08:03:52;99367.84;;;13.06;95.11
73151;BME280;61354;50.758;6.106;2023-05-14T08:06:18;99362.84;;;13.15;96.01
73151;BME280;61354;50.758;6.106;2023-05-14T08:08:45;99368.72;;;13.30;95.57
73151;BME280;61354;50.758;6.106;2023-05-14T08:11:11;99369.97;;;13.32;96.24
73151;BME280;61354;50.758;6.106;2023-05-14T08:13:36;99372.81;;;13.36;95.19
73151;BME280;61354;50.758;6.106;2023-05-14T08:16:02;99369.88;;;13.09;95.02
73151;BME280;61354;50.758;6.106;2023-05-14T08:18:27;99366.94;;;13.22;96.74
73151;BME280;61354;50.758;6.106;2023-05-14T08:20:53;99369.00;;;13.25;95.82
73151;BME280;61354;50.758;6.106;2023-05-14T08:23:19;99365.56;;;13.31;96.83
73151;BME280;61354;50.758;6.106;2023-05-14T08:25:44;99361.03;;;13.46;95.36
73151;BME280;61354;50.758;6.106;2023-05-14T08:28:10;99358.91;;;13.39;95.83
73151;BME280;61354;50.758;6.106;2023-05-14T08:30:36;99361.59;;;13.55;95.84
73151;BME280;61354;50.758;6.106;2023-05-14T08:33:02;99368.09;;;13.40;95.19
73151;BME280;61354;50.758;6.106;2023-05-14T08:35:27;99362.44;;;13.59;94.69
73151;BME280;61354;50.758;6.106;2023-05-14T08:37:53;99358.19;;;13.65;94.44
73151;BME280;61354;50.758;6.106;2023-05-14T08:40:18;99357.66;;;13.83;95.21
73151;BME280;61354;50.758;6.106;2023-05-14T08:42:44;99349.41;;;13.90;94.92
73151;BME280;61354;50.758;6.106;2023-05-14T08:45:20;99358.69;;;13.98;94.62
73151;BME280;61354;50.758;6.106;2023-05-14T08:47:50;99357.13;;;14.00;94.30
73151;BME280;61354;50.758;6.106;2023-05-14T08:50:16;99359.44;;;13.95;94.27
73151;BME280;61354;50.758;6.106;2023-05-14T08:52:42;99357.31;;;14.11;94.41
73151;BME280;61354;50.758;6.106;2023-05-14T08:55:09;99359.66;;;14.09;94.36
73151;BME280;61354;50.758;6.106;2023-05-14T08:57:36;99362.09;;;14.10;94.57
73151;BME280;61354;50.758;6.106;2023-05-14T09:00:03;99366.81;;;14.06;95.19
73151;BME280;61354;50.758;6.106;2023-05-14T09:02:39;99353.09;;;14.24;94.98
73151;BME280;61354;50.758;6.106;2023-05-14T09:05:05;99359.66;;;14.09;94.60
73151;BME280;61354;50.758;6.106;2023-05-14T09:07:32;99354.72;;;13.99;94.27
73151;BME280;61354;50.758;6.106;2023-05-14T09:09:58;99354.88;;;14.09;94.37
73151;BME280;61354;50.758;6.106;2023-05-14T09:12:24;99349.94;;;13.99;94.44
73151;BME280;61354;50.758;6.106;2023-05-14T09:14:50;99354.13;;;14.12;92.58
73151;BME280;61354;50.758;6.106;2023-05-14T09:17:17;99352.06;;;13.83;94.23
73151;BME280;61354;50.758;6.106;2023-05-14T09:19:43;99356.22;;;13.92;93.69
73151;BME280;61354;50.758;6.106;2023-05-14T09:22:13;99356.28;;;13.96;92.39
73151;BME280;61354;50.758;6.106;2023-05-14T09:24:39;99361.09;;;13.99;94.09
73151;BME280;61354;50.758;6.106;2023-05-14T09:27:05;99360.38;;;14.02;94.02
73151;BME280;61354;50.758;6.106;2023-05-14T09:29:31;99366.41;;;14.08;93.21
73151;BME280;61354;50.758;6.106;2023-05-14T09:31:58;99361.44;;;13.94;93.45
73151;BME280;61354;50.758;6.106;2023-05-14T09:34:29;99359.97;;;14.04;93.38
73151;BME280;61354;50.758;6.106;2023-05-14T09:37:05;99359.38;;;14.17;92.86
73151;BME280;61354;50.758;6.106;2023-05-14T09:39:31;99361.16;;;14.29;93.31
73151;BME280;61354;50.758;6.106;2023-05-14T09:41:57;99359.09;;;14.26;93.71
73151;BME280;61354;50.758;6.106;2023-05-14T09:44:23;99356.28;;;14.49;92.17
73151;BME280;61354;50.758;6.106;2023-05-14T09:46:50;99361.63;;;14.35;91.37
73151;BME280;61354;50.758;6.106;2023-05-14T09:49:16;99349.78;;;14.45;90.61
73151;BME280;61354;50.758;6.106;2023-05-14T09:51:42;99356.34;;;14.30;89.27
73151;BME280;61354;50.758;6.106;2023-05-14T09:54:08;99355.63;;;14.33;90.33
73151;BME280;61354;50.758;6.106;2023-05-14T09:56:35;99352.66;;;14.49;90.02
73151;BME280;61354;50.758;6.106;2023-05-14T09:59:02;99355.78;;;14.74;91.32
73151;BME280;61354;50.758;6.106;2023-05-14T10:01:29;99353.78;;;14.74;91.35
73151;BME280;61354;50.758;6.106;2023-05-14T10:03:55;99355.09;;;14.84;90.45
73151;BME280;61354;50.758;6.106;2023-05-14T10:06:26;99359.19;;;14.90;90.03
73151;BME280;61354;50.758;6.106;2023-05-14T10:08:54;99354.19;;;14.73;88.31
73151;BME280;61354;50.758;6.106;2023-05-14T10:11:24;99352.41;;;14.31;87.57
73151;BME280;61354;50.758;6.106;2023-05-14T10:14:01;99352.59;;;14.45;87.05
73151;BME280;61354;50.758;6.106;2023-05-14T10:16:32;99350.47;;;14.35;88.75
73151;BME280;61354;50.758;6.106;2023-05-14T10:19:09;99347.28;;;14.36;86.86
73151;BME280;61354;50.758;6.106;2023-05-14T10:21:36;99352.53;;;14.72;88.05
73151;BME280;61354;50.758;6.106;2023-05-14T10:24:06;99344.84;;;14.61;86.08
73151;BME280;61354;50.758;6.106;2023-05-14T10:26:34;99344.75;;;14.54;86.97
73151;BME280;61354;50.758;6.106;2023-05-14T10:29:04;99341.03;;;14.47;87.19
73151;BME280;61354;50.758;6.106;2023-05-14T10:31:49;99344.13;;;15.02;89.45
73151;BME280;61354;50.758;6.106;2023-05-14T10:37:16;99346.00;;;15.28;85.40
73151;BME280;61354;50.758;6.106;2023-05-14T10:42:20;99337.78;;;15.08;85.07
73151;BME280;61354;50.758;6.106;2023-05-14T10:44:53;99327.66;;;15.30;84.81
73151;BME280;61354;50.758;6.106;2023-05-14T10:47:21;99330.66;;;15.55;86.82
73151;BME280;61354;50.758;6.106;2023-05-14T10:49:47;99325.38;;;15.43;83.49
73151;BME280;61354;50.758;6.106;2023-05-14T10:52:16;99327.72;;;15.41;83.88
73151;BME280;61354;50.758;6.106;2023-05-14T10:57:17;99319.66;;;15.32;81.22
73151;BME280;61354;50.758;6.106;2023-05-14T10:59:43;99315.59;;;15.71;82.19
73151;BME280;61354;50.758;6.106;2023-05-14T11:05:02;99316.28;;;16.08;85.13
73151;BME280;61354;50.758;6.106;2023-05-14T11:07:30;99302.63;;;16.03;82.81
73151;BME280;61354;50.758;6.106;2023-05-14T11:10:05;99297.16;;;16.25;83.88
73151;BME280;61354;50.758;6.106;2023-05-14T11:12:33;99293.97;;;16.23;80.12
73151;BME280;61354;50.758;6.106;2023-05-14T11:15:00;99297.25;;;16.39;79.87
73151;BME280;61354;50.758;6.106;2023-05-14T11:17:27;99291.31;;;16.62;81.28
73151;BME280;61354;50.758;6.106;2023-05-14T11:19:53;99294.06;;;16.44;80.76
73151;BME280;61354;50.758;6.106;2023-05-14T11:22:20;99298.97;;;16.69;79.92
73151;BME280;61354;50.758;6.106;2023-05-14T11:24:46;99291.53;;;16.21;78.66
73151;BME280;61354;50.758;6.106;2023-05-14T11:27:11;99292.56;;;16.72;79.67
73151;BME280;61354;50.758;6.106;2023-05-14T11:29:37;99286.19;;;16.75;78.15
73151;BME280;61354;50.758;6.106;2023-05-14T11:32:06;99278.19;;;16.80;76.79
73151;BME280;61354;50.758;6.106;2023-05-14T11:34:32;99272.59;;;16.84;76.56
73151;BME280;61354;50.758;6.106;2023-05-14T11:37:05;99271.69;;;16.62;71.40
73151;BME280;61354;50.758;6.106;2023-05-14T11:39:31;99271.38;;;16.78;75.74
73151;BME280;61354;50.758;6.106;2023-05-14T11:42:02;99275.81;;;17.00;77.82
73151;BME280;61354;50.758;6.106;2023-05-14T11:44:29;99264.59;;;16.86;74.99
73151;BME280;61354;50.758;6.106;2023-05-14T11:46:56;99271.41;;;16.85;74.45
73151;BME280;61354;50.758;6.106;2023-05-14T11:49:22;99261.84;;;17.22;74.79
73151;BME280;61354;50.758;6.106;2023-05-14T11:51:49;99256.22;;;17.39;75.37
73151;BME280;61354;50.758;6.106;2023-05-14T11:54:15;99253.00;;;17.16;73.61
73151;BME280;61354;50.758;6.106;2023-05-14T11:56:40;99257.44;;;17.28;73.84
73151;BME280;61354;50.758;6.106;2023-05-14T11:59:06;99257.44;;;17.67;76.10
73151;BME280;61354;50.758;6.106;2023-05-14T12:01:37;99249.38;;;17.65;74.51
73151;BME280;61354;50.758;6.106;2023-05-14T12:04:03;99249.00;;;17.67;74.51
73151;BME280;61354;50.758;6.106;2023-05-14T12:06:30;99246.19;;;17.74;72.34
73151;BME280;61354;50.758;6.106;2023-05-14T12:08:56;99242.97;;;17.61;71.31
73151;BME280;61354;50.758;6.106;2023-05-14T12:11:22;99242.97;;;17.72;69.39
73151;BME280;61354;50.758;6.106;2023-05-14T12:13:47;99240.56;;;17.49;70.23
73151;BME280;61354;50.758;6.106;2023-05-14T12:16:13;99243.78;;;17.65;72.16
73151;BME280;61354;50.758;6.106;2023-05-14T12:18:38;99227.72;;;17.70;70.70
73151;BME280;61354;50.758;6.106;2023-05-14T12:21:05;99235.75;;;17.89;68.94
73151;BME280;61354;50.758;6.106;2023-05-14T12:23:32;99226.53;;;17.81;67.04
73151;BME280;61354;50.758;6.106;2023-05-14T12:26:02;99216.50;;;17.84;69.38
73151;BME280;61354;50.758;6.106;2023-05-14T12:28:30;99216.09;;;17.89;67.71
73151;BME280;61354;50.758;6.106;2023-05-14T12:30:57;99224.53;;;17.57;66.42
73151;BME280;61354;50.758;6.106;2023-05-14T12:33:22;99211.63;;;18.02;67.90
73151;BME280;61354;50.758;6.106;2023-05-14T12:35:51;99203.56;;;18.11;67.51
73151;BME280;61354;50.758;6.106;2023-05-14T12:38:18;99200.38;;;18.02;65.74
73151;BME280;61354;50.758;6.106;2023-05-14T12:40:44;99202.28;;;18.34;65.18
73151;BME280;61354;50.758;6.106;2023-05-14T12:43:09;99198.69;;;18.26;61.19
73151;BME280;61354;50.758;6.106;2023-05-14T12:45:35;99179.31;;;18.50;67.37
73151;BME280;61354;50.758;6.106;2023-05-14T12:48:01;99180.44;;;18.56;62.24
73151;BME280;61354;50.758;6.106;2023-05-14T12:50:27;99180.91;;;18.47;65.20
73151;BME280;61354;50.758;6.106;2023-05-14T12:52:52;99188.84;;;18.67;65.07
73151;BME280;61354;50.758;6.106;2023-05-14T12:55:18;99181.06;;;18.92;60.66
73151;BME280;61354;50.758;6.106;2023-05-14T12:57:43;99178.72;;;18.80;61.06
73151;BME280;61354;50.758;6.106;2023-05-14T13:00:09;99184.47;;;18.55;61.29
73151;BME280;61354;50.758;6.106;2023-05-14T13:02:35;99172.91;;;18.42;63.02
73151;BME280;61354;50.758;6.106;2023-05-14T13:05:01;99173.63;;;18.53;62.10
73151;BME280;61354;50.758;6.106;2023-05-14T13:07:30;99168.78;;;18.57;60.78
73151;BME280;61354;50.758;6.106;2023-05-14T13:09:56;99167.19;;;18.56;64.12
73151;BME280;61354;50.758;6.106;2023-05-14T13:12:22;99165.53;;;18.70;63.16